Time;durP1;ratioP1;P1;durP2;ratioP2;P2;SDS_P1;SDS_P2;PMS_P1;PMS_P2;Temp;Humidity;BMP_temperature;BMP_pressure;BME280_temperature;BME280_humidity;BME280_pressure;Samples;Min_cycle;Max_cycle;Signal;HPM_P1;HPM_P2
2022/08/16 00:01:31;;;;;;;40.00;32.50;;;;;;;;;;4968362;28;20023;-84
2022/08/16 00:03:58;;;;;;;46.35;34.20;;;;;;;;;;4967848;28;20035;-85
2022/08/16 00:06:24;;;;;;;41.63;35.50;;;;;;;;;;4969847;28;20077;-84
2022/08/16 00:08:50;;;;;;;38.22;33.92;;;;;;;;;;4969619;28;20487;-85
2022/08/16 00:11:17;;;;;;;41.58;36.05;;;;;;;;;;4966453;28;20376;-85
2022/08/16 00:13:44;;;;;;;46.42;37.90;;;;;;;;;;4951725;28;20030;-84
2022/08/16 00:16:10;;;;;;;46.10;38.45;;;;;;;;;;4967221;28;20113;-85
2022/08/16 00:18:36;;;;;;;44.42;37.13;;;;;;;;;;4950191;28;20059;-85
2022/08/16 00:21:02;;;;;;;43.53;37.42;;;;;;;;;;4966737;28;20043;-84
2022/08/16 00:23:29;;;;;;;45.83;35.58;;;;;;;;;;4968307;28;20070;-84
2022/08/16 00:25:55;;;;;;;44.92;37.80;;;;;;;;;;4965422;28;20023;-85
2022/08/16 00:28:22;;;;;;;43.85;36.42;;;;;;;;;;4961338;28;20026;-84
2022/08/16 00:30:48;;;;;;;54.08;39.42;;;;;;;;;;4950409;28;20034;-85
2022/08/16 00:33:14;;;;;;;47.67;38.85;;;;;;;;;;4968506;28;20117;-84
2022/08/16 00:35:40;;;;;;;51.10;40.10;;;;;;;;;;4967597;28;20038;-85
2022/08/16 00:38:07;;;;;;;47.95;39.10;;;;;;;;;;4964541;28;20031;-86
2022/08/16 00:40:35;;;;;;;51.65;39.85;;;;;;;;;;4968900;28;20395;-85
2022/08/16 00:43:03;;;;;;;54.33;42.42;;;;;;;;;;4968108;28;20027;-86
2022/08/16 00:45:29;;;;;;;55.88;42.45;;;;;;;;;;4968040;28;20033;-85
2022/08/16 00:47:55;;;;;;;51.13;42.40;;;;;;;;;;4966338;28;20022;-86
2022/08/16 00:50:23;;;;;;;50.75;40.55;;;;;;;;;;4968013;28;20019;-85
2022/08/16 00:52:49;;;;;;;48.33;39.67;;;;;;;;;;4964528;28;20114;-85
2022/08/16 00:55:15;;;;;;;49.33;39.67;;;;;;;;;;4967754;28;20125;-85
2022/08/16 00:57:41;;;;;;;50.88;40.35;;;;;;;;;;4965837;28;20034;-85
2022/08/16 01:00:07;;;;;;;58.13;45.47;;;;;;;;;;4967757;28;20030;-85
2022/08/16 01:02:34;;;;;;;54.50;44.05;;;;;;;;;;4951444;28;20056;-85
2022/08/16 01:05:00;;;;;;;55.15;42.25;;;;;;;;;;4971148;28;20030;-85
2022/08/16 01:07:26;;;;;;;52.28;40.90;;;;;;;;;;4969968;28;20047;-84
2022/08/16 01:09:52;;;;;;;55.17;43.65;;;;;;;;;;4971247;28;20035;-86
2022/08/16 01:12:20;;;;;;;58.58;42.63;;;;;;;;;;4953411;28;20039;-85
2022/08/16 01:14:48;;;;;;;57.08;44.55;;;;;;;;;;4974519;28;20018;-85
2022/08/16 01:17:16;;;;;;;57.83;45.58;;;;;;;;;;4969560;28;20130;-85
2022/08/16 01:19:44;;;;;;;64.93;47.35;;;;;;;;;;4953997;28;20030;-85
2022/08/16 01:22:16;;;;;;;62.92;46.53;;;;;;;;;;4970086;28;20031;-85
2022/08/16 01:24:44;;;;;;;65.07;46.40;;;;;;;;;;4970423;28;20030;-85
2022/08/16 01:27:23;;;;;;;66.68;48.40;;;;;;;;;;4968984;28;20114;-86
2022/08/16 01:30:02;;;;;;;67.35;47.47;;;;;;;;;;4970436;28;20023;-86
2022/08/16 01:32:29;;;;;;;66.75;48.25;;;;;;;;;;4978930;28;20038;-85
2022/08/16 01:34:55;;;;;;;74.70;49.78;;;;;;;;;;4960847;28;20045;-85
2022/08/16 01:37:21;;;;;;;69.40;49.47;;;;;;;;;;4967368;28;20122;-85
2022/08/16 01:39:47;;;;;;;76.32;52.67;;;;;;;;;;4970151;28;20102;-85
2022/08/16 01:42:13;;;;;;;81.43;54.83;;;;;;;;;;4968442;28;20035;-86
2022/08/16 01:44:39;;;;;;;76.28;55.28;;;;;;;;;;4953340;28;20030;-86
2022/08/16 01:47:06;;;;;;;74.43;53.42;;;;;;;;;;4957126;28;20034;-86
2022/08/16 01:49:35;;;;;;;76.95;54.42;;;;;;;;;;4963640;28;20031;-86
2022/08/16 01:52:05;;;;;;;76.70;53.70;;;;;;;;;;4969029;28;20038;-84
2022/08/16 01:54:31;;;;;;;75.90;51.60;;;;;;;;;;4965209;28;20031;-86
2022/08/16 01:56:58;;;;;;;77.38;53.83;;;;;;;;;;4965867;28;20698;-86
2022/08/16 01:59:24;;;;;;;81.93;55.97;;;;;;;;;;4968402;28;20610;-86
2022/08/16 02:01:52;;;;;;;87.25;58.00;;;;;;;;;;4966946;28;20035;-88
2022/08/16 02:04:18;;;;;;;86.63;58.55;;;;;;;;;;4969966;28;20034;-85
2022/08/16 02:06:44;;;;;;;85.50;55.72;;;;;;;;;;4952565;28;20464;-86
2022/08/16 02:09:11;;;;;;;76.43;53.60;;;;;;;;;;4970001;28;20023;-86
2022/08/16 02:11:38;;;;;;;69.93;51.25;;;;;;;;;;4968498;28;20034;-85
2022/08/16 02:14:05;;;;;;;74.95;53.22;;;;;;;;;;4968485;28;20034;-85
2022/08/16 02:16:31;;;;;;;72.75;52.60;;;;;;;;;;4967217;28;20456;-85
2022/08/16 02:18:58;;;;;;;67.75;49.88;;;;;;;;;;4969457;28;20088;-86
2022/08/16 02:21:24;;;;;;;68.10;48.05;;;;;;;;;;4968573;28;20035;-86
2022/08/16 02:23:50;;;;;;;62.63;46.28;;;;;;;;;;4954290;28;20140;-86
2022/08/16 02:26:16;;;;;;;65.70;47.58;;;;;;;;;;4951003;28;20495;-86
2022/08/16 02:28:43;;;;;;;64.50;48.72;;;;;;;;;;4952385;28;20106;-86
2022/08/16 02:31:13;;;;;;;61.83;47.22;;;;;;;;;;4952131;28;20065;-86
2022/08/16 02:33:39;;;;;;;64.57;47.03;;;;;;;;;;4967243;28;20027;-86
2022/08/16 02:36:06;;;;;;;65.85;46.40;;;;;;;;;;4956745;28;20035;-85
2022/08/16 02:38:38;;;;;;;56.65;43.25;;;;;;;;;;4952339;28;20037;-86
2022/08/16 02:41:04;;;;;;;53.97;43.38;;;;;;;;;;4957286;28;20034;-86
2022/08/16 02:43:31;;;;;;;54.40;43.03;;;;;;;;;;5032243;28;20121;-86
2022/08/16 02:45:58;;;;;;;64.40;43.05;;;;;;;;;;4947822;28;20391;-86
2022/08/16 02:48:25;;;;;;;58.65;42.22;;;;;;;;;;4952300;28;20031;-85
2022/08/16 02:50:51;;;;;;;50.97;40.10;;;;;;;;;;4966362;28;20030;-86
2022/08/16 02:53:17;;;;;;;47.28;37.70;;;;;;;;;;4976940;28;20052;-85
2022/08/16 02:55:43;;;;;;;56.75;40.17;;;;;;;;;;4966979;28;20035;-86
2022/08/16 02:58:10;;;;;;;51.53;38.53;;;;;;;;;;5038228;28;20038;-85
2022/08/16 03:00:36;;;;;;;58.72;43.20;;;;;;;;;;4967146;28;20027;-86
2022/08/16 03:03:02;;;;;;;65.05;44.40;;;;;;;;;;5038820;28;20507;-85
2022/08/16 03:05:29;;;;;;;60.75;43.95;;;;;;;;;;4951336;28;20042;-86
2022/08/16 03:07:55;;;;;;;56.40;43.63;;;;;;;;;;4967661;28;20039;-86
2022/08/16 03:10:21;;;;;;;59.35;42.17;;;;;;;;;;4969277;28;20031;-86
2022/08/16 03:12:49;;;;;;;57.90;44.20;;;;;;;;;;5033099;28;20035;-86
2022/08/16 03:15:15;;;;;;;57.65;42.55;;;;;;;;;;4953274;28;20519;-85
2022/08/16 03:17:42;;;;;;;60.25;45.42;;;;;;;;;;4939702;28;20031;-86
2022/08/16 03:20:09;;;;;;;59.28;44.67;;;;;;;;;;4958915;28;20035;-86
2022/08/16 03:22:35;;;;;;;64.22;44.38;;;;;;;;;;4965544;28;20120;-87
2022/08/16 03:25:03;;;;;;;77.00;48.67;;;;;;;;;;4971602;28;20046;-86
2022/08/16 03:27:32;;;;;;;64.78;46.40;;;;;;;;;;4966795;28;20049;-86
2022/08/16 03:30:05;;;;;;;65.75;47.97;;;;;;;;;;4968283;28;20503;-86
2022/08/16 03:32:31;;;;;;;70.85;48.75;;;;;;;;;;4968319;28;20039;-86
2022/08/16 03:34:57;;;;;;;75.28;46.97;;;;;;;;;;4951107;28;20696;-87
2022/08/16 03:37:23;;;;;;;81.30;52.22;;;;;;;;;;4948983;28;20030;-86
2022/08/16 03:39:49;;;;;;;76.38;51.45;;;;;;;;;;4935255;28;20454;-86
2022/08/16 03:42:15;;;;;;;84.55;51.28;;;;;;;;;;5032478;28;20031;-86
2022/08/16 03:44:42;;;;;;;86.78;54.50;;;;;;;;;;4935373;28;20589;-86
2022/08/16 03:47:08;;;;;;;81.85;53.38;;;;;;;;;;4943481;28;20381;-85
2022/08/16 03:49:35;;;;;;;84.30;53.17;;;;;;;;;;4967922;28;20479;-86
2022/08/16 03:52:01;;;;;;;95.75;57.85;;;;;;;;;;4951158;28;20038;-87
2022/08/16 03:54:27;;;;;;;89.55;58.55;;;;;;;;;;4966783;28;20030;-86
2022/08/16 03:56:53;;;;;;;95.60;59.60;;;;;;;;;;4946840;28;20562;-87
2022/08/16 03:59:19;;;;;;;89.38;57.70;;;;;;;;;;4966676;28;20030;-86
2022/08/16 04:01:45;;;;;;;91.10;57.80;;;;;;;;;;4948210;28;20503;-86
2022/08/16 04:04:11;;;;;;;102.43;60.78;;;;;;;;;;4951022;28;20130;-86
2022/08/16 04:06:37;;;;;;;97.53;62.00;;;;;;;;;;4975319;28;20039;-86
2022/08/16 04:09:03;;;;;;;103.75;63.35;;;;;;;;;;4968710;28;20050;-86
2022/08/16 04:11:29;;;;;;;104.88;63.15;;;;;;;;;;4950223;28;20034;-86
2022/08/16 04:13:55;;;;;;;99.05;62.75;;;;;;;;;;4971517;28;20042;-86
2022/08/16 04:16:21;;;;;;;96.45;62.20;;;;;;;;;;4977533;28;20621;-86
2022/08/16 04:18:48;;;;;;;98.88;61.70;;;;;;;;;;4950381;28;20035;-86
2022/08/16 04:21:14;;;;;;;101.05;61.15;;;;;;;;;;4966520;28;20181;-86
2022/08/16 04:23:40;;;;;;;97.43;59.88;;;;;;;;;;4948028;28;20505;-86
2022/08/16 04:26:06;;;;;;;86.80;57.97;;;;;;;;;;4953208;28;20031;-86
2022/08/16 04:28:33;;;;;;;90.95;57.80;;;;;;;;;;4968220;28;20022;-86
2022/08/16 04:30:59;;;;;;;89.55;59.75;;;;;;;;;;4951366;28;20032;-86
2022/08/16 04:33:25;;;;;;;96.72;59.05;;;;;;;;;;4949822;28;20037;-85
2022/08/16 04:35:52;;;;;;;91.32;60.78;;;;;;;;;;4941024;28;20496;-86
2022/08/16 04:38:18;;;;;;;99.32;61.40;;;;;;;;;;4971872;28;20127;-86
2022/08/16 04:40:46;;;;;;;95.70;61.45;;;;;;;;;;4969610;28;20499;-86
2022/08/16 04:43:13;;;;;;;97.15;60.47;;;;;;;;;;5037547;28;20082;-86
2022/08/16 04:45:39;;;;;;;89.00;59.63;;;;;;;;;;4971185;28;20110;-86
2022/08/16 04:48:05;;;;;;;89.85;58.63;;;;;;;;;;4966083;28;20400;-85
2022/08/16 04:50:31;;;;;;;86.53;57.03;;;;;;;;;;4966688;28;20038;-87
2022/08/16 04:52:58;;;;;;;77.97;54.75;;;;;;;;;;4964775;28;20027;-86
2022/08/16 04:55:25;;;;;;;70.65;52.40;;;;;;;;;;4971444;28;20058;-85
2022/08/16 04:57:52;;;;;;;68.30;51.92;;;;;;;;;;4969352;28;20031;-85
2022/08/16 05:00:21;;;;;;;71.93;51.53;;;;;;;;;;4971853;28;20043;-85
2022/08/16 05:02:49;;;;;;;65.97;50.28;;;;;;;;;;4955454;28;20031;-86
2022/08/16 05:05:15;;;;;;;71.35;49.33;;;;;;;;;;4953818;28;20023;-85
2022/08/16 05:07:41;;;;;;;69.35;49.58;;;;;;;;;;4952309;28;20543;-85
2022/08/16 05:10:08;;;;;;;73.00;50.25;;;;;;;;;;4955059;28;20559;-85
2022/08/16 05:12:35;;;;;;;72.22;48.63;;;;;;;;;;4953204;28;20475;-86
2022/08/16 05:15:01;;;;;;;75.97;51.75;;;;;;;;;;4954076;28;20062;-86
2022/08/16 05:17:27;;;;;;;71.10;49.42;;;;;;;;;;4968227;28;20045;-86
2022/08/16 05:19:54;;;;;;;71.22;49.92;;;;;;;;;;4971510;28;20035;-86
2022/08/16 05:22:20;;;;;;;68.20;48.55;;;;;;;;;;4970178;28;20038;-85
2022/08/16 05:24:46;;;;;;;77.25;49.85;;;;;;;;;;4968198;28;20340;-85
2022/08/16 05:27:12;;;;;;;68.63;47.72;;;;;;;;;;4956764;28;20042;-85
2022/08/16 05:29:38;;;;;;;65.53;48.60;;;;;;;;;;5039901;28;20479;-85
2022/08/16 05:32:04;;;;;;;63.63;46.08;;;;;;;;;;4933575;28;20189;-85
2022/08/16 05:34:30;;;;;;;64.35;49.35;;;;;;;;;;4968764;28;20027;-84
2022/08/16 05:36:56;;;;;;;69.88;49.10;;;;;;;;;;4949772;28;20038;-85
2022/08/16 05:39:23;;;;;;;65.18;46.63;;;;;;;;;;4952375;28;20038;-85
2022/08/16 05:41:50;;;;;;;56.78;45.05;;;;;;;;;;4974801;28;20042;-84
2022/08/16 05:44:17;;;;;;;58.13;43.30;;;;;;;;;;4969901;28;20039;-83
2022/08/16 05:46:44;;;;;;;56.90;43.30;;;;;;;;;;4953127;28;20058;-85
2022/08/16 05:49:12;;;;;;;50.00;40.95;;;;;;;;;;4969920;28;20042;-85
2022/08/16 05:51:38;;;;;;;52.90;40.78;;;;;;;;;;4951872;28;20092;-85
2022/08/16 05:54:04;;;;;;;53.38;40.47;;;;;;;;;;4953470;28;20126;-85
2022/08/16 05:56:30;;;;;;;53.58;39.47;;;;;;;;;;4967763;28;20031;-85
2022/08/16 05:58:56;;;;;;;48.03;39.38;;;;;;;;;;4948240;28;20096;-85
2022/08/16 06:01:22;;;;;;;48.90;38.03;;;;;;;;;;4988790;28;20043;-86
2022/08/16 06:03:48;;;;;;;52.13;37.55;;;;;;;;;;4967759;28;20046;-84
2022/08/16 06:06:14;;;;;;;50.97;37.25;;;;;;;;;;4967998;28;20027;-85
2022/08/16 06:08:40;;;;;;;53.63;37.15;;;;;;;;;;4967947;28;20087;-85
2022/08/16 06:11:25;;;;;;;46.15;36.08;;;;;;;;;;4957034;28;20380;-84
2022/08/16 06:13:51;;;;;;;54.20;35.92;;;;;;;;;;4978658;28;20035;-85
2022/08/16 06:16:17;;;;;;;51.40;35.42;;;;;;;;;;4978897;28;20043;-83
2022/08/16 06:18:43;;;;;;;44.10;34.70;;;;;;;;;;4976485;28;20042;-82
2022/08/16 06:21:10;;;;;;;46.90;35.78;;;;;;;;;;4975770;28;20492;-84
2022/08/16 06:23:36;;;;;;;42.13;34.00;;;;;;;;;;4984179;28;20035;-84
2022/08/16 06:26:03;;;;;;;43.58;34.95;;;;;;;;;;4986035;28;20098;-82
2022/08/16 06:28:28;;;;;;;44.78;33.10;;;;;;;;;;4990205;28;20034;-84
2022/08/16 06:30:55;;;;;;;44.95;34.80;;;;;;;;;;4983591;28;20047;-85
2022/08/16 06:33:21;;;;;;;41.05;33.33;;;;;;;;;;4975877;28;20070;-84
2022/08/16 06:35:48;;;;;;;39.35;33.38;;;;;;;;;;4946044;28;20042;-84
2022/08/16 06:38:14;;;;;;;47.08;34.78;;;;;;;;;;4969678;28;20034;-76
2022/08/16 06:40:40;;;;;;;39.35;33.65;;;;;;;;;;4968579;28;20038;-75
2022/08/16 06:43:06;;;;;;;44.38;32.55;;;;;;;;;;4962525;28;20109;-76
2022/08/16 06:45:36;;;;;;;39.03;31.98;;;;;;;;;;4965501;28;20041;-76
2022/08/16 06:48:02;;;;;;;41.58;31.35;;;;;;;;;;4965500;28;20026;-76
2022/08/16 06:50:28;;;;;;;42.88;32.20;;;;;;;;;;4942445;28;20034;-76
2022/08/16 06:52:54;;;;;;;38.47;32.95;;;;;;;;;;4964465;28;20049;-75
2022/08/16 06:55:20;;;;;;;43.78;33.08;;;;;;;;;;4965624;28;20039;-76
2022/08/16 06:57:47;;;;;;;42.58;32.88;;;;;;;;;;4967985;28;20047;-75
2022/08/16 07:00:13;;;;;;;41.47;33.42;;;;;;;;;;4958533;28;20082;-76
2022/08/16 07:02:40;;;;;;;42.38;32.65;;;;;;;;;;4963148;28;20141;-76
2022/08/16 07:05:07;;;;;;;39.50;33.35;;;;;;;;;;4970266;28;20113;-76
2022/08/16 07:07:33;;;;;;;46.15;35.20;;;;;;;;;;4973826;28;20042;-75
2022/08/16 07:09:59;;;;;;;45.90;35.90;;;;;;;;;;4964971;28;20018;-76
2022/08/16 07:12:25;;;;;;;47.38;36.60;;;;;;;;;;4949771;28;20061;-75
2022/08/16 07:14:51;;;;;;;49.03;35.22;;;;;;;;;;4949108;28;20054;-76
2022/08/16 07:17:20;;;;;;;47.72;36.53;;;;;;;;;;4967313;28;20043;-75
2022/08/16 07:19:46;;;;;;;45.80;37.75;;;;;;;;;;4968613;28;20035;-76
2022/08/16 07:22:12;;;;;;;46.42;37.78;;;;;;;;;;4968683;28;20094;-75
2022/08/16 07:24:38;;;;;;;46.33;36.83;;;;;;;;;;4956942;28;20093;-76
2022/08/16 07:27:04;;;;;;;50.80;36.88;;;;;;;;;;4971338;28;20076;-76
2022/08/16 07:29:30;;;;;;;47.63;38.72;;;;;;;;;;4973427;28;20031;-76
2022/08/16 07:31:56;;;;;;;53.30;37.22;;;;;;;;;;4968460;28;20099;-76
2022/08/16 07:34:22;;;;;;;43.05;36.30;;;;;;;;;;4968976;28;20039;-76
2022/08/16 07:36:48;;;;;;;48.28;37.22;;;;;;;;;;4966603;28;20035;-76
2022/08/16 07:39:14;;;;;;;55.30;37.97;;;;;;;;;;4968648;28;20034;-77
2022/08/16 07:41:43;;;;;;;50.42;37.92;;;;;;;;;;5029446;28;20030;-76
2022/08/16 07:44:09;;;;;;;48.65;38.10;;;;;;;;;;4951690;28;20804;-76
2022/08/16 07:46:35;;;;;;;50.03;38.53;;;;;;;;;;4950742;28;20031;-76
2022/08/16 07:49:01;;;;;;;50.17;37.33;;;;;;;;;;4964640;28;20838;-78
2022/08/16 07:51:30;;;;;;;47.03;38.50;;;;;;;;;;4964020;28;20387;-78
2022/08/16 07:53:56;;;;;;;50.20;37.65;;;;;;;;;;4967995;28;20023;-77
2022/08/16 07:56:22;;;;;;;45.03;37.50;;;;;;;;;;4963867;28;20225;-76
2022/08/16 07:58:48;;;;;;;46.67;37.38;;;;;;;;;;4990805;28;20496;-76
2022/08/16 08:01:14;;;;;;;50.45;39.45;;;;;;;;;;4967077;28;20045;-76
2022/08/16 08:03:42;;;;;;;47.47;37.95;;;;;;;;;;4969327;28;20084;-76
2022/08/16 08:06:08;;;;;;;47.35;37.85;;;;;;;;;;4964584;28;20031;-75
2022/08/16 08:08:35;;;;;;;49.20;39.35;;;;;;;;;;4964970;28;20027;-76
2022/08/16 08:11:01;;;;;;;51.83;38.08;;;;;;;;;;4967642;28;20106;-76
2022/08/16 08:13:28;;;;;;;46.53;36.83;;;;;;;;;;4951501;28;20054;-76
2022/08/16 08:15:55;;;;;;;42.90;37.10;;;;;;;;;;4967137;28;20029;-78
2022/08/16 08:18:21;;;;;;;47.42;35.90;;;;;;;;;;4951430;28;20046;-76
2022/08/16 08:20:47;;;;;;;42.83;35.83;;;;;;;;;;4961876;28;20031;-76
2022/08/16 08:23:14;;;;;;;43.33;35.40;;;;;;;;;;4964479;28;20056;-76
2022/08/16 08:25:41;;;;;;;46.03;36.20;;;;;;;;;;4967260;28;20023;-76
2022/08/16 08:28:08;;;;;;;40.20;35.25;;;;;;;;;;4968987;28;20092;-76
2022/08/16 08:30:34;;;;;;;47.80;35.92;;;;;;;;;;4953312;28;20314;-77
2022/08/16 08:33:00;;;;;;;41.25;36.10;;;;;;;;;;4963254;28;20097;-76
2022/08/16 08:35:27;;;;;;;44.20;34.03;;;;;;;;;;4966313;28;20117;-76
2022/08/16 08:37:54;;;;;;;42.50;34.42;;;;;;;;;;4976959;28;20547;-77
2022/08/16 08:40:20;;;;;;;43.08;33.58;;;;;;;;;;4950026;28;20043;-76
2022/08/16 08:42:46;;;;;;;41.70;32.45;;;;;;;;;;4965119;28;20023;-76
2022/08/16 08:45:14;;;;;;;41.85;32.05;;;;;;;;;;4966778;28;20069;-76
2022/08/16 08:47:41;;;;;;;42.25;31.40;;;;;;;;;;4966872;28;20027;-76
2022/08/16 08:50:07;;;;;;;41.53;32.67;;;;;;;;;;4965905;28;20062;-76
2022/08/16 08:52:33;;;;;;;38.05;33.15;;;;;;;;;;4959412;28;20030;-76
2022/08/16 08:55:04;;;;;;;41.20;32.88;;;;;;;;;;4966322;28;20038;-77
2022/08/16 08:57:30;;;;;;;41.97;34.67;;;;;;;;;;4960506;28;20434;-77
2022/08/16 08:59:57;;;;;;;40.13;33.50;;;;;;;;;;4964572;28;20489;-76
2022/08/16 09:02:23;;;;;;;42.00;33.78;;;;;;;;;;4964251;28;20539;-77
2022/08/16 09:04:49;;;;;;;43.05;32.13;;;;;;;;;;5028875;28;20045;-77
2022/08/16 09:07:16;;;;;;;42.50;32.92;;;;;;;;;;4947831;28;20142;-76
2022/08/16 09:09:42;;;;;;;40.50;32.35;;;;;;;;;;4958114;28;20028;-76
2022/08/16 09:12:08;;;;;;;37.90;31.48;;;;;;;;;;4966688;28;20035;-76
2022/08/16 09:14:37;;;;;;;36.28;29.45;;;;;;;;;;4965584;28;20027;-77
2022/08/16 09:17:04;;;;;;;34.13;29.77;;;;;;;;;;4963385;28;20361;-76
2022/08/16 09:19:30;;;;;;;38.53;29.30;;;;;;;;;;4966753;28;20106;-76
2022/08/16 09:21:56;;;;;;;37.20;29.88;;;;;;;;;;4948445;28;20039;-77
2022/08/16 09:24:22;;;;;;;38.65;31.48;;;;;;;;;;4953670;28;20043;-77
2022/08/16 09:26:48;;;;;;;42.92;32.38;;;;;;;;;;4953765;28;20038;-76
2022/08/16 09:29:14;;;;;;;33.80;26.73;;;;;;;;;;4968480;28;20031;-77
2022/08/16 09:31:40;;;;;;;39.08;29.25;;;;;;;;;;4967984;28;20407;-77
2022/08/16 09:34:06;;;;;;;44.38;32.92;;;;;;;;;;5003029;28;20056;-76
2022/08/16 09:36:32;;;;;;;35.22;29.63;;;;;;;;;;4950809;28;20135;-77
2022/08/16 09:39:02;;;;;;;32.72;28.45;;;;;;;;;;4951890;28;20027;-75
2022/08/16 09:41:28;;;;;;;33.25;28.73;;;;;;;;;;4953613;28;20019;-75
2022/08/16 09:43:54;;;;;;;35.42;27.63;;;;;;;;;;4970543;28;20065;-76
2022/08/16 09:46:20;;;;;;;34.00;28.30;;;;;;;;;;4963661;28;20023;-74
2022/08/16 09:48:46;;;;;;;31.50;27.98;;;;;;;;;;4969433;28;20015;-75
2022/08/16 09:51:13;;;;;;;32.90;28.42;;;;;;;;;;4950029;28;20034;-76
2022/08/16 09:53:39;;;;;;;43.70;31.70;;;;;;;;;;4969714;28;20360;-76
2022/08/16 09:56:09;;;;;;;36.72;29.10;;;;;;;;;;5033138;28;20879;-77
2022/08/16 09:58:35;;;;;;;35.85;29.63;;;;;;;;;;4968024;28;20117;-76
2022/08/16 10:01:01;;;;;;;35.13;29.08;;;;;;;;;;4968325;28;20118;-77
2022/08/16 10:03:27;;;;;;;40.83;31.10;;;;;;;;;;5034873;28;20047;-78
2022/08/16 10:05:53;;;;;;;39.13;32.15;;;;;;;;;;4968201;28;20027;-77
2022/08/16 10:08:19;;;;;;;36.40;30.45;;;;;;;;;;4966901;28;20057;-77
2022/08/16 10:13:10;;;;;;;35.88;29.60;;;;;;;;;;5031738;28;20526;-76
2022/08/16 10:13:33;;;;;;;38.00;30.55;;;;;;;;;;4969195;28;20046;-77
2022/08/16 10:15:59;;;;;;;36.58;30.30;;;;;;;;;;4950180;28;20503;-76
2022/08/16 10:18:29;;;;;;;33.90;28.42;;;;;;;;;;4950740;28;20684;-77
2022/08/16 10:20:57;;;;;;;37.35;30.88;;;;;;;;;;4968239;28;20023;-76
2022/08/16 10:23:23;;;;;;;34.92;29.70;;;;;;;;;;4967841;28;20043;-77
2022/08/16 10:25:49;;;;;;;37.13;30.70;;;;;;;;;;4947232;28;20131;-76
2022/08/16 10:28:15;;;;;;;36.78;29.38;;;;;;;;;;4972166;28;20050;-77
2022/08/16 10:30:42;;;;;;;37.03;32.28;;;;;;;;;;4975447;28;20042;-77
2022/08/16 10:33:08;;;;;;;34.63;29.20;;;;;;;;;;4967481;28;20026;-77
2022/08/16 10:35:34;;;;;;;39.13;31.58;;;;;;;;;;4967079;28;20506;-77
2022/08/16 10:38:00;;;;;;;34.40;29.77;;;;;;;;;;4969152;28;20027;-77
2022/08/16 10:40:27;;;;;;;37.97;31.58;;;;;;;;;;4969577;28;20146;-77
2022/08/16 10:43:11;;;;;;;37.60;31.92;;;;;;;;;;4967730;28;20058;-78
2022/08/16 10:45:37;;;;;;;39.50;32.03;;;;;;;;;;4970050;28;20023;-77
2022/08/16 10:48:05;;;;;;;34.28;30.35;;;;;;;;;;4951626;28;20131;-77
2022/08/16 10:50:31;;;;;;;34.00;29.77;;;;;;;;;;4968262;28;20027;-76
2022/08/16 10:52:58;;;;;;;31.27;27.00;;;;;;;;;;4968659;28;20213;-77
2022/08/16 10:55:25;;;;;;;32.80;25.08;;;;;;;;;;4967261;28;20050;-76
2022/08/16 10:57:53;;;;;;;32.15;26.23;;;;;;;;;;4968450;28;20128;-78
2022/08/16 11:00:19;;;;;;;30.02;23.27;;;;;;;;;;4965028;28;20340;-77
2022/08/16 11:02:46;;;;;;;31.40;21.52;;;;;;;;;;4967722;28;20542;-85
2022/08/16 11:05:14;;;;;;;30.45;27.00;;;;;;;;;;4965923;28;20088;-87
2022/08/16 11:07:41;;;;;;;36.47;28.13;;;;;;;;;;4967045;28;20035;-85
2022/08/16 11:10:09;;;;;;;33.65;27.88;;;;;;;;;;4966067;28;20421;-86
2022/08/16 11:12:35;;;;;;;34.40;27.73;;;;;;;;;;4981353;28;20487;-77
2022/08/16 11:15:01;;;;;;;31.63;24.90;;;;;;;;;;4966783;28;20229;-76
2022/08/16 11:17:27;;;;;;;32.78;27.33;;;;;;;;;;4954137;28;20046;-77
2022/08/16 11:19:53;;;;;;;35.22;27.60;;;;;;;;;;4948384;28;20222;-76
2022/08/16 11:22:19;;;;;;;34.17;26.50;;;;;;;;;;4966480;28;20039;-77
2022/08/16 11:24:45;;;;;;;36.67;29.73;;;;;;;;;;4966770;28;20031;-77
2022/08/16 11:27:17;;;;;;;38.75;26.73;;;;;;;;;;4950500;28;20400;-77
2022/08/16 11:29:43;;;;;;;36.13;30.77;;;;;;;;;;4950724;28;20049;-75
2022/08/16 11:32:09;;;;;;;38.58;29.63;;;;;;;;;;4980224;28;20477;-78
2022/08/16 11:34:35;;;;;;;35.40;30.23;;;;;;;;;;4952433;28;20109;-76
2022/08/16 11:37:01;;;;;;;31.83;28.42;;;;;;;;;;4964850;28;20114;-77
2022/08/16 11:39:30;;;;;;;36.97;28.70;;;;;;;;;;4966028;28;20027;-77
2022/08/16 11:41:56;;;;;;;34.30;27.43;;;;;;;;;;4963043;28;20387;-77
2022/08/16 11:44:23;;;;;;;35.15;25.35;;;;;;;;;;4968682;28;20294;-76
2022/08/16 11:46:49;;;;;;;28.65;22.10;;;;;;;;;;4946879;28;20445;-75
2022/08/16 11:49:16;;;;;;;28.63;21.55;;;;;;;;;;4966296;28;20039;-75
2022/08/16 11:51:43;;;;;;;24.77;18.58;;;;;;;;;;4966141;28;20356;-76
2022/08/16 11:54:09;;;;;;;24.42;16.20;;;;;;;;;;4957857;28;20659;-75
2022/08/16 11:56:35;;;;;;;26.58;19.02;;;;;;;;;;4955791;28;20043;-76
2022/08/16 11:59:02;;;;;;;24.45;20.75;;;;;;;;;;4966649;28;20038;-75
2022/08/16 12:01:28;;;;;;;26.00;20.45;;;;;;;;;;5035158;28;21792;-74
2022/08/16 12:03:54;;;;;;;23.30;18.15;;;;;;;;;;4955090;28;20045;-75
2022/08/16 12:06:21;;;;;;;22.65;18.90;;;;;;;;;;4966269;28;20034;-76
2022/08/16 12:08:47;;;;;;;24.63;20.73;;;;;;;;;;4930875;28;1073091;-77
2022/08/16 12:11:14;;;;;;;24.98;20.70;;;;;;;;;;4948696;28;20117;-77
2022/08/16 12:13:41;;;;;;;24.33;20.05;;;;;;;;;;4966871;28;20035;-75
2022/08/16 12:16:08;;;;;;;25.13;18.75;;;;;;;;;;4961157;28;20124;-75
2022/08/16 12:18:34;;;;;;;26.65;19.08;;;;;;;;;;4968035;28;20046;-75
2022/08/16 12:21:00;;;;;;;25.25;18.83;;;;;;;;;;4966634;28;20043;-77
2022/08/16 12:23:26;;;;;;;25.90;19.27;;;;;;;;;;4964642;28;20046;-76
2022/08/16 12:25:53;;;;;;;20.55;18.30;;;;;;;;;;4964056;28;20107;-76
2022/08/16 12:28:19;;;;;;;25.00;16.80;;;;;;;;;;4963343;28;20372;-76
2022/08/16 12:30:46;;;;;;;22.90;19.98;;;;;;;;;;4950235;28;20031;-76
2022/08/16 12:33:15;;;;;;;22.67;19.27;;;;;;;;;;5030146;28;20039;-77
2022/08/16 12:35:41;;;;;;;30.17;21.58;;;;;;;;;;4969565;28;20034;-76
2022/08/16 12:38:08;;;;;;;30.13;22.42;;;;;;;;;;4975751;28;20045;-76
2022/08/16 12:40:35;;;;;;;25.10;22.48;;;;;;;;;;4965943;28;20429;-76
2022/08/16 12:43:03;;;;;;;29.08;23.77;;;;;;;;;;4966577;28;20053;-76
2022/08/16 12:45:30;;;;;;;31.08;23.58;;;;;;;;;;4949422;28;20034;-76
2022/08/16 12:50:41;;;;;;;25.88;20.42;;;;;;;;;;4966040;28;20038;-75
2022/08/16 12:53:07;;;;;;;28.38;21.45;;;;;;;;;;4949681;28;20412;-75
2022/08/16 12:55:33;;;;;;;33.45;23.88;;;;;;;;;;4963702;28;20023;-85
2022/08/16 12:58:00;;;;;;;28.35;23.17;;;;;;;;;;4968900;28;20038;-86
2022/08/16 13:00:28;;;;;;;24.90;20.95;;;;;;;;;;4972135;28;20042;-85
2022/08/16 13:02:55;;;;;;;25.08;19.27;;;;;;;;;;4964103;28;20404;-85
2022/08/16 13:05:21;;;;;;;27.95;18.83;;;;;;;;;;4980168;28;20078;-86
2022/08/16 13:07:47;;;;;;;27.85;19.33;;;;;;;;;;4974260;28;20050;-86
2022/08/16 13:10:14;;;;;;;29.33;19.60;;;;;;;;;;5078610;28;20120;-86
2022/08/16 13:12:42;;;;;;;21.58;19.33;;;;;;;;;;5038859;28;20045;-86
2022/08/16 13:15:11;;;;;;;23.75;21.08;;;;;;;;;;4974611;28;20112;-86
2022/08/16 13:17:56;;;;;;;25.85;19.02;;;;;;;;;;4973629;28;20034;-86
2022/08/16 13:20:23;;;;;;;25.52;19.45;;;;;;;;;;4965765;28;20026;-86
2022/08/16 13:22:52;;;;;;;27.00;19.20;;;;;;;;;;5037385;28;20415;-86
2022/08/16 13:25:21;;;;;;;22.40;20.05;;;;;;;;;;4970759;28;20046;-86
2022/08/16 13:27:47;;;;;;;27.20;22.65;;;;;;;;;;4970378;28;20027;-86
2022/08/16 13:30:13;;;;;;;26.65;21.52;;;;;;;;;;4972416;28;20035;-87
2022/08/16 13:32:39;;;;;;;29.77;23.33;;;;;;;;;;4970691;28;20085;-86
2022/08/16 13:35:05;;;;;;;28.38;25.30;;;;;;;;;;4970397;28;20565;-86
2022/08/16 13:37:31;;;;;;;34.78;25.88;;;;;;;;;;4968378;28;20038;-86
2022/08/16 13:39:57;;;;;;;32.63;26.65;;;;;;;;;;5030811;28;20034;-86
2022/08/16 13:42:24;;;;;;;35.80;27.95;;;;;;;;;;5019831;28;20043;-87
2022/08/16 13:44:50;;;;;;;36.85;30.40;;;;;;;;;;5060084;28;20395;-86
2022/08/16 13:47:16;;;;;;;31.67;26.50;;;;;;;;;;4968625;28;20027;-85
2022/08/16 13:49:45;;;;;;;38.17;31.13;;;;;;;;;;4970079;28;20167;-86
2022/08/16 13:52:11;;;;;;;46.65;36.65;;;;;;;;;;4969245;28;20085;-85
2022/08/16 13:54:37;;;;;;;52.33;33.35;;;;;;;;;;4967738;28;20111;-86
2022/08/16 13:57:03;;;;;;;41.78;33.05;;;;;;;;;;4969870;28;20058;-85
2022/08/16 13:59:30;;;;;;;41.25;32.75;;;;;;;;;;4965112;28;20090;-86
2022/08/16 14:01:58;;;;;;;39.72;31.13;;;;;;;;;;4971931;28;20026;-86
2022/08/16 14:04:26;;;;;;;37.88;30.20;;;;;;;;;;4973637;28;20043;-85
2022/08/16 14:07:12;;;;;;;39.75;31.65;;;;;;;;;;4983925;28;20074;-87
2022/08/16 14:09:39;;;;;;;40.38;29.33;;;;;;;;;;4969309;28;20395;-86
2022/08/16 14:12:12;;;;;;;35.97;27.77;;;;;;;;;;4968709;28;20106;-85
2022/08/16 14:14:57;;;;;;;39.53;29.77;;;;;;;;;;5044313;28;20031;-84
2022/08/16 14:17:24;;;;;;;40.00;29.95;;;;;;;;;;4980358;28;20035;-85